Time;durP1;ratioP1;P1;durP2;ratioP2;P2;SDS_P1;SDS_P2;PMS_P1;PMS_P2;Temp;Humidity;BMP_temperature;BMP_pressure;BME280_temperature;BME280_humidity;BME280_pressure;Samples;Min_cycle;Max_cycle;Signal;HPM_P1;HPM_P2
2021/07/08 00:00:13;;;;;;;3.80;1.40;;;;;;;16.04;71.18;101452.20;1629953;88;21242;-69
2021/07/08 00:02:47;;;;;;;2.65;1.42;;;;;;;16.02;71.28;101452.00;1615077;89;21354;-69
2021/07/08 00:05:25;;;;;;;6.60;1.80;;;;;;;16.02;71.40;101457.28;1631384;88;21210;-69
2021/07/08 00:08:00;;;;;;;8.48;1.70;;;;;;;15.99;71.48;101453.12;1630162;88;21390;-70
2021/07/08 00:10:36;;;;;;;4.15;1.60;;;;;;;15.96;71.57;101458.67;1631057;88;21278;-69
2021/07/08 00:13:09;;;;;;;4.45;1.60;;;;;;;15.95;71.71;101459.63;1630024;86;21720;-69
2021/07/08 00:15:42;;;;;;;5.37;1.57;;;;;;;15.93;71.81;101461.59;1631743;88;21308;-69
2021/07/08 00:18:15;;;;;;;6.55;1.75;;;;;;;15.90;71.91;101463.22;1631856;88;21174;-69
2021/07/08 00:20:48;;;;;;;4.35;1.70;;;;;;;15.90;72.00;101471.14;1631464;88;21214;-69
2021/07/08 00:23:22;;;;;;;7.00;1.47;;;;;;;15.89;72.15;101471.26;1614985;87;21204;-69
2021/07/08 00:25:56;;;;;;;5.10;1.75;;;;;;;15.87;72.24;101475.84;1623801;88;21159;-70
2021/07/08 00:28:30;;;;;;;4.60;1.37;;;;;;;15.85;72.41;101477.32;1607758;88;21174;-70
2021/07/08 00:31:03;;;;;;;8.65;1.90;;;;;;;15.83;72.59;101481.08;1623756;88;21305;-69
2021/07/08 00:33:37;;;;;;;5.25;1.90;;;;;;;15.80;72.63;101483.98;1609170;89;21204;-69
2021/07/08 00:36:11;;;;;;;5.83;2.00;;;;;;;15.78;72.73;101488.58;1622471;88;21211;-69
2021/07/08 00:38:45;;;;;;;5.87;1.60;;;;;;;15.75;72.79;101487.53;1624195;88;21163;-69
2021/07/08 00:41:18;;;;;;;6.40;2.00;;;;;;;15.73;72.91;101493.44;1608741;89;21306;-69
2021/07/08 00:43:52;;;;;;;3.62;1.77;;;;;;;15.71;73.02;101494.91;1623899;88;21159;-69
2021/07/08 00:46:24;;;;;;;;;;;;;;;15.71;73.08;101500.67;1611324;89;21275;-69
2021/07/08 00:48:57;;;;;;;3.37;1.87;;;;;;;15.70;73.14;101501.16;1623978;88;20549;-70
2021/07/08 00:51:30;;;;;;;7.35;2.10;;;;;;;15.68;73.24;101504.90;1589212;89;21266;-70
2021/07/08 00:54:04;;;;;;;4.05;1.82;;;;;;;15.66;73.21;101498.45;1624173;88;21281;-69
2021/07/08 00:56:37;;;;;;;4.10;1.67;;;;;;;15.64;73.25;101498.24;1624105;88;21278;-69
2021/07/08 00:59:11;;;;;;;6.00;2.10;;;;;;;15.62;73.26;101499.67;1609326;89;21354;-69
2021/07/08 01:01:44;;;;;;;6.03;1.90;;;;;;;15.60;73.26;101506.91;1623337;88;21234;-70
2021/07/08 01:04:17;;;;;;;3.98;1.80;;;;;;;15.57;73.33;101508.49;1624162;88;21147;-69
2021/07/08 01:06:53;;;;;;;4.00;1.43;;;;;;;15.56;73.37;101502.05;1624097;88;21202;-69
2021/07/08 01:09:25;;;;;;;3.55;1.95;;;;;;;15.52;73.44;101501.50;1609016;89;21310;-69
2021/07/08 01:11:58;;;;;;;3.62;1.90;;;;;;;15.50;73.47;101508.22;1623301;88;21228;-69
2021/07/08 01:14:32;;;;;;;5.90;2.17;;;;;;;15.47;73.50;101511.16;1623194;87;21317;-69
2021/07/08 01:17:07;;;;;;;3.30;1.80;;;;;;;15.46;73.66;101512.11;1622583;88;21159;-69
2021/07/08 01:19:42;;;;;;;6.30;1.80;;;;;;;15.43;73.69;101516.78;1622389;88;21178;-71
2021/07/08 01:22:15;;;;;;;7.33;1.82;;;;;;;15.41;73.64;101516.93;1623074;88;21206;-69
2021/07/08 01:24:49;;;;;;;3.10;1.80;;;;;;;15.37;73.67;101516.02;1630442;87;21305;-69
2021/07/08 01:27:22;;;;;;;4.97;2.00;;;;;;;15.34;73.78;101518.45;1642639;86;21342;-69
2021/07/08 01:29:56;;;;;;;5.80;1.82;;;;;;;15.32;73.90;101519.55;1644257;87;21266;-69
2021/07/08 01:32:30;;;;;;;8.18;1.98;;;;;;;15.30;74.07;101524.13;1643506;87;21270;-69
2021/07/08 01:35:03;;;;;;;10.30;1.82;;;;;;;15.30;74.17;101525.45;1644118;87;21282;-69
2021/07/08 01:37:36;;;;;;;5.15;1.87;;;;;;;15.29;74.30;101523.77;1644052;87;21282;-69
2021/07/08 01:40:13;;;;;;;3.67;1.85;;;;;;;15.29;74.43;101528.57;1644202;87;21162;-69
2021/07/08 01:42:46;;;;;;;6.55;2.02;;;;;;;15.31;74.50;101527.10;1643379;87;21175;-69
2021/07/08 01:45:19;;;;;;;5.33;1.80;;;;;;;15.34;74.48;101532.96;1644382;87;21170;-69
2021/07/08 01:47:52;;;;;;;6.47;1.98;;;;;;;15.36;74.43;101529.70;1644395;87;21289;-69
2021/07/08 01:50:26;;;;;;;7.42;2.35;;;;;;;15.40;74.43;101531.59;1644275;87;21166;-70
2021/07/08 01:52:59;;;;;;;5.10;1.93;;;;;;;15.44;74.43;101531.66;1643364;87;21309;-70
2021/07/08 01:55:32;;;;;;;5.05;1.90;;;;;;;15.49;74.39;101534.28;1644396;87;21313;-70
2021/07/08 01:58:05;;;;;;;9.17;1.97;;;;;;;15.51;74.28;101534.13;1644140;87;21203;-70
2021/07/08 02:00:38;;;;;;;7.73;2.30;;;;;;;15.49;74.24;101532.96;1644111;87;21571;-70
2021/07/08 02:03:11;;;;;;;5.70;1.90;;;;;;;15.50;74.38;101531.97;1643591;87;21194;-69
2021/07/08 02:05:44;;;;;;;9.73;2.17;;;;;;;15.56;74.39;101537.67;1644207;87;21266;-69
2021/07/08 02:08:17;;;;;;;12.43;2.20;;;;;;;15.58;74.37;101537.89;1644238;87;21265;-69
2021/07/08 02:10:51;;;;;;;5.10;2.47;;;;;;;15.61;74.29;101541.58;1623781;87;21164;-69
2021/07/08 02:13:24;;;;;;;4.05;2.00;;;;;;;15.66;74.20;101542.48;1643408;86;21198;-70
2021/07/08 02:15:57;;;;;;;3.90;1.80;;;;;;;15.70;74.15;101535.95;1644273;87;21163;-70
2021/07/08 02:18:30;;;;;;;6.00;2.40;;;;;;;15.76;74.16;101549.94;1644106;87;21263;-70
2021/07/08 02:21:04;;;;;;;5.00;2.33;;;;;;;15.83;74.09;101545.77;1644469;87;21345;-70
2021/07/08 02:23:37;;;;;;;4.75;1.80;;;;;;;15.91;73.99;101544.09;1643189;87;21318;-70
2021/07/08 02:26:10;;;;;;;11.85;2.50;;;;;;;15.99;73.79;101557.45;1644191;87;21166;-70
2021/07/08 02:28:43;;;;;;;10.03;3.77;;;;;;;16.07;73.61;101557.56;1644019;87;21393;-70
2021/07/08 02:31:16;;;;;;;14.30;3.90;;;;;;;16.18;73.41;101561.88;1644441;87;21266;-70
2021/07/08 02:33:50;;;;;;;8.95;3.80;;;;;;;16.30;73.17;101562.08;1643647;87;21301;-69
2021/07/08 02:36:23;;;;;;;9.13;4.40;;;;;;;16.46;72.85;101555.71;1644091;87;21187;-70
2021/07/08 02:38:56;;;;;;;15.17;4.67;;;;;;;16.65;72.36;101561.47;1644102;87;21242;-69
2021/07/08 02:41:30;;;;;;;13.30;4.05;;;;;;;16.85;71.84;101556.47;1644219;87;21996;-68
2021/07/08 02:44:03;;;;;;;13.32;4.20;;;;;;;17.02;71.18;101555.71;1643517;87;21400;-67
2021/07/08 02:46:36;;;;;;;6.67;3.92;;;;;;;17.18;70.59;101555.06;1644342;87;21159;-66
2021/07/08 02:49:09;;;;;;;7.70;3.75;;;;;;;17.29;69.88;101556.21;1644026;87;21286;-67
2021/07/08 02:51:42;;;;;;;6.35;3.42;;;;;;;17.39;69.49;101560.45;1644139;87;21276;-68
2021/07/08 02:54:16;;;;;;;6.45;3.10;;;;;;;17.52;69.07;101567.23;1643200;87;21163;-70
2021/07/08 02:56:49;;;;;;;14.15;3.40;;;;;;;17.64;68.76;101568.20;1622112;87;21281;-70
2021/07/08 02:59:22;;;;;;;9.23;3.17;;;;;;;17.82;68.48;101567.72;1643086;87;21329;-70
2021/07/08 03:01:55;;;;;;;6.35;3.40;;;;;;;18.01;68.01;101569.37;1643003;87;21166;-70
2021/07/08 03:04:28;;;;;;;5.22;2.95;;;;;;;18.19;67.48;101574.19;1643235;87;21211;-70
2021/07/08 03:07:01;;;;;;;9.23;3.33;;;;;;;18.35;66.99;101576.12;1642883;87;21273;-69
2021/07/08 03:09:36;;;;;;;4.58;2.62;;;;;;;18.53;66.42;101583.59;1642878;87;21333;-70
2021/07/08 03:12:10;;;;;;;7.35;2.50;;;;;;;18.70;65.89;101581.39;1642289;87;21309;-69
2021/07/08 03:14:44;;;;;;;4.95;2.50;;;;;;;18.90;65.15;101576.19;1642454;86;21164;-70
2021/07/08 03:17:17;;;;;;;6.67;2.62;;;;;;;19.09;64.53;101572.45;1644443;87;21335;-70
2021/07/08 03:19:51;;;;;;;7.30;2.22;;;;;;;19.30;63.98;101582.16;1643958;87;21178;-71
2021/07/08 03:22:24;;;;;;;8.43;2.37;;;;;;;19.52;63.20;101573.64;1644344;87;21223;-71
2021/07/08 03:24:57;;;;;;;5.28;2.35;;;;;;;19.74;62.50;101575.70;1643131;87;21479;-72
2021/07/08 03:27:30;;;;;;;9.67;2.23;;;;;;;20.00;61.82;101587.02;1644391;86;21163;-72
2021/07/08 03:30:06;;;;;;;4.80;2.62;;;;;;;20.27;61.02;101588.56;1644171;87;21406;-72
2021/07/08 03:32:40;;;;;;;7.67;2.50;;;;;;;20.57;60.11;101586.53;1643890;87;21159;-72
2021/07/08 03:35:14;;;;;;;4.00;2.00;;;;;;;20.89;59.28;101588.80;1643138;87;21277;-71
2021/07/08 03:37:48;;;;;;;7.45;2.27;;;;;;;21.25;58.40;101582.05;1643955;87;21200;-68
2021/07/08 03:40:21;;;;;;;5.22;2.10;;;;;;;21.61;57.47;101577.88;1643964;87;21182;-67
2021/07/08 03:42:55;;;;;;;7.53;2.20;;;;;;;22.01;56.33;101581.63;1644053;87;21156;-69
2021/07/08 03:45:29;;;;;;;6.40;2.70;;;;;;;22.42;55.02;101580.78;1642523;86;21732;-69
2021/07/08 03:48:03;;;;;;;5.35;2.30;;;;;;;22.88;53.77;101582.02;1642514;86;21752;-69
2021/07/08 03:50:36;;;;;;;8.83;2.80;;;;;;;23.36;52.64;101578.77;1643850;87;21187;-68
2021/07/08 03:53:10;;;;;;;5.15;2.27;;;;;;;23.89;51.36;101580.17;1644448;87;21147;-68
2021/07/08 03:55:43;;;;;;;5.42;2.40;;;;;;;24.48;49.86;101589.58;1643152;87;21198;-68
2021/07/08 03:58:16;;;;;;;12.55;2.85;;;;;;;25.10;48.42;101587.45;1644410;87;21768;-67
2021/07/08 04:00:49;;;;;;;4.58;2.52;;;;;;;25.70;46.68;101582.66;1644119;87;21290;-66
2021/07/08 04:03:22;;;;;;;2.77;2.12;;;;;;;26.26;45.22;101585.33;1644051;87;21270;-67
2021/07/08 04:05:55;;;;;;;9.73;2.35;;;;;;;26.79;44.05;101579.92;1643030;87;21222;-66
2021/07/08 04:08:28;;;;;;;3.75;2.10;;;;;;;27.32;42.83;101582.77;1644220;87;21670;-65
2021/07/08 04:11:01;;;;;;;8.40;2.50;;;;;;;27.87;41.63;101584.73;1643057;87;21305;-68
2021/07/08 04:13:35;;;;;;;5.85;2.58;;;;;;;28.41;40.46;101586.02;1643157;86;21254;-69
2021/07/08 04:16:08;;;;;;;8.40;2.22;;;;;;;28.91;39.25;101595.70;1642481;86;21720;-67
2021/07/08 04:18:42;;;;;;;6.42;2.77;;;;;;;29.35;38.35;101588.66;1644080;87;21266;-67
2021/07/08 04:21:15;;;;;;;5.37;2.25;;;;;;;29.76;37.67;101586.56;1643763;87;21370;-68
2021/07/08 04:23:48;;;;;;;9.60;2.67;;;;;;;30.22;36.67;101586.37;1643937;87;21144;-67
2021/07/08 04:26:21;;;;;;;7.78;2.55;;;;;;;30.67;35.84;101586.67;1642919;87;21293;-68
2021/07/08 04:28:55;;;;;;;11.10;3.83;;;;;;;31.04;35.13;101590.23;1645725;86;21144;-68
2021/07/08 04:31:27;;;;;;;;;;;;;;;31.44;34.56;101591.61;1661938;86;21297;-68
2021/07/08 04:34:00;;;;;;;5.95;2.62;;;;;;;31.84;33.71;101587.46;1659817;86;20583;-68
2021/07/08 04:36:33;;;;;;;6.62;3.02;;;;;;;32.17;33.11;101588.08;1658568;86;21297;-68
2021/07/08 04:39:06;;;;;;;;;;;;;;;32.58;32.64;101595.24;1661853;86;21198;-68
2021/07/08 04:41:40;;;;;;;8.53;2.98;;;;;;;33.01;32.06;101591.77;1658192;86;20173;-68
2021/07/08 04:44:13;;;;;;;6.53;2.65;;;;;;;33.34;31.48;101584.07;1661049;85;21271;-68
2021/07/08 04:46:46;;;;;;;5.28;2.65;;;;;;;33.79;30.83;101587.28;1663691;84;21419;-68
2021/07/08 04:49:19;;;;;;;9.78;3.08;;;;;;;34.25;30.06;101583.06;1677681;85;21224;-67
2021/07/08 04:51:53;;;;;;;6.97;2.37;;;;;;;34.67;29.54;101586.36;1665830;85;21264;-66
2021/07/08 04:54:25;;;;;;;4.67;2.30;;;;;;;35.03;29.06;101593.12;1670121;85;21260;-66
2021/07/08 04:56:59;;;;;;;9.23;2.60;;;;;;;35.42;28.49;101586.69;1676070;85;21288;-67
2021/07/08 04:59:32;;;;;;;3.60;2.08;;;;;;;35.82;27.89;101587.35;1654286;86;21189;-69
2021/07/08 05:02:05;;;;;;;6.42;2.50;;;;;;;36.18;27.25;101589.56;1682616;83;21177;-70
2021/07/08 05:04:38;;;;;;;7.37;2.25;;;;;;;36.59;26.97;101590.35;1631723;86;21302;-68
2021/07/08 05:07:15;;;;;;;6.20;2.12;;;;;;;36.98;26.42;101598.16;1650653;85;21323;-67
2021/07/08 05:09:48;;;;;;;2.30;2.10;;;;;;;37.30;25.87;101599.11;1662077;85;21295;-65
2021/07/08 05:12:21;;;;;;;6.92;3.60;;;;;;;37.58;25.56;101596.51;1665739;84;21542;-74
2021/07/08 05:14:54;;;;;;;5.55;2.33;;;;;;;37.87;25.09;101594.41;1654347;85;21325;-73
2021/07/08 05:17:28;;;;;;;6.70;2.27;;;;;;;38.20;24.82;101595.77;1653380;85;21339;-69
2021/07/08 05:20:03;;;;;;;5.90;2.40;;;;;;;38.59;24.18;101586.11;1685308;83;21329;-68
2021/07/08 05:22:40;;;;;;;6.25;2.22;;;;;;;38.92;23.58;101589.30;1677284;85;21886;-67
2021/07/08 05:25:17;;;;;;;4.72;2.40;;;;;;;39.31;22.86;101585.53;1675941;85;21272;-68
2021/07/08 05:27:50;;;;;;;5.90;2.20;;;;;;;39.69;22.47;101585.81;1677152;83;21225;-67
2021/07/08 05:30:26;;;;;;;5.15;2.00;;;;;;;40.13;21.93;101580.69;1644585;85;21241;-64
2021/07/08 05:33:01;;;;;;;6.85;2.50;;;;;;;40.51;21.26;101587.45;1665055;85;21229;-68
2021/07/08 05:35:38;;;;;;;4.70;2.12;;;;;;;40.76;20.84;101585.56;1669298;84;21924;-68
2021/07/08 05:38:13;;;;;;;4.78;2.27;;;;;;;41.07;20.61;101585.77;1671115;84;21351;-70
2021/07/08 05:40:47;;;;;;;6.30;2.22;;;;;;;41.44;20.32;101586.89;1667793;84;21322;-68
2021/07/08 05:43:21;;;;;;;4.72;1.72;;;;;;;41.77;19.99;101581.99;1662735;85;21205;-67
2021/07/08 05:45:54;;;;;;;6.72;2.15;;;;;;;42.02;20.22;101578.02;1665273;85;21325;-66
2021/07/08 05:48:27;;;;;;;5.05;1.57;;;;;;;42.25;19.50;101574.12;1665074;85;21210;-69
2021/07/08 05:51:00;;;;;;;5.25;2.42;;;;;;;42.41;19.38;101573.72;1664586;85;21237;-68
2021/07/08 05:53:34;;;;;;;4.47;1.70;;;;;;;42.58;19.55;101570.51;1669929;84;21560;-67
2021/07/08 05:56:07;;;;;;;2.95;2.08;;;;;;;42.83;19.18;101564.80;1664511;85;21227;-68
2021/07/08 05:58:42;;;;;;;5.35;1.87;;;;;;;43.06;18.61;101573.25;1659644;85;21325;-63
2021/07/08 06:01:15;;;;;;;4.55;2.02;;;;;;;43.24;17.90;101567.16;1664100;85;21213;-67
2021/07/08 06:03:50;;;;;;;12.05;2.35;;;;;;;43.46;17.13;101562.34;1663887;85;21199;-65
2021/07/08 06:06:25;;;;;;;6.97;1.95;;;;;;;43.55;16.72;101560.39;1673662;85;21217;-65
2021/07/08 06:08:58;;;;;;;2.85;1.40;;;;;;;43.69;16.45;101564.93;1667928;85;21304;-66
2021/07/08 06:11:31;;;;;;;3.67;1.60;;;;;;;43.76;16.34;101559.75;1640978;87;21221;-67
2021/07/08 06:14:07;;;;;;;4.55;1.77;;;;;;;43.68;16.26;101557.78;1671009;85;21438;-67
2021/07/08 06:16:41;;;;;;;8.18;1.80;;;;;;;43.80;16.04;101562.09;1647508;85;21193;-67
2021/07/08 06:19:15;;;;;;;3.27;1.65;;;;;;;43.88;15.92;101555.72;1671523;85;21178;-63
2021/07/08 06:21:53;;;;;;;6.53;1.70;;;;;;;43.93;16.21;101553.61;1670467;85;21332;-65
2021/07/08 06:24:22;;;;;;;6.67;1.65;;;;;;;44.08;15.30;101550.92;1638256;87;21166;-67
2021/07/08 06:26:55;;;;;;;2.55;1.72;;;;;;;43.96;15.40;101548.82;1648086;86;21266;-66
2021/07/08 06:29:30;;;;;;;4.83;1.90;;;;;;;43.63;15.19;101552.43;1665358;85;21359;-67
2021/07/08 06:32:04;;;;;;;3.77;1.67;;;;;;;43.51;15.14;101550.34;1649631;85;21318;-67
2021/07/08 06:34:37;;;;;;;6.15;1.62;;;;;;;43.44;15.26;101548.64;1654721;85;21333;-68
2021/07/08 06:37:10;;;;;;;2.30;1.65;;;;;;;43.68;15.36;101548.13;1671943;84;21191;-68
2021/07/08 06:39:46;;;;;;;5.05;1.57;;;;;;;44.01;14.81;101548.64;1642501;85;21349;-67
2021/07/08 06:42:18;;;;;;;9.63;2.15;;;;;;;44.28;14.52;101549.39;1656377;85;21216;-69
2021/07/08 06:44:51;;;;;;;4.28;1.62;;;;;;;44.39;14.16;101549.25;1650168;85;22643;-65
2021/07/08 06:47:28;;;;;;;6.40;1.40;;;;;;;44.54;14.29;101548.16;1672146;84;21197;-68
2021/07/08 06:49:59;;;;;;;7.35;1.65;;;;;;;44.73;13.77;101547.72;1669952;84;21900;-65
2021/07/08 06:52:33;;;;;;;6.12;1.40;;;;;;;44.80;13.73;101548.81;1645798;86;21482;-69
2021/07/08 06:55:08;;;;;;;4.83;1.55;;;;;;;44.63;12.72;101548.09;1669360;84;22586;-66
2021/07/08 06:57:50;;;;;;;3.00;1.40;;;;;;;44.43;12.90;101536.39;1671607;85;21209;-69
2021/07/08 07:00:18;;;;;;;5.15;1.72;;;;;;;44.56;13.19;101534.82;1671528;85;21918;-65
2021/07/08 07:02:55;;;;;;;2.92;1.70;;;;;;;44.77;13.64;101539.80;1645756;86;21295;-69
2021/07/08 07:05:29;;;;;;;6.58;1.60;;;;;;;44.80;12.87;101540.53;1644454;85;21543;-72
2021/07/08 07:08:02;;;;;;;2.85;1.45;;;;;;;44.86;13.08;101532.86;1634138;87;21506;-67
2021/07/08 07:10:35;;;;;;;4.17;1.45;;;;;;;44.96;13.10;101540.76;1643834;85;21203;-69
2021/07/08 07:13:12;;;;;;;2.08;1.35;;;;;;;45.08;12.28;101545.55;1650460;85;21224;-68
2021/07/08 07:15:45;;;;;;;5.15;1.65;;;;;;;45.07;12.63;101544.73;1636596;85;21218;-67
2021/07/08 07:18:18;;;;;;;3.65;1.80;;;;;;;45.07;12.40;101543.34;1643418;85;21272;-72
2021/07/08 07:20:52;;;;;;;3.05;1.62;;;;;;;45.03;12.42;101548.50;1669100;84;22320;-73
2021/07/08 07:23:25;;;;;;;1.98;1.60;;;;;;;44.97;11.71;101547.92;1658070;85;21938;-69
2021/07/08 07:25:58;;;;;;;3.05;1.57;;;;;;;44.65;12.13;101548.00;1663935;85;21891;-70
2021/07/08 07:28:32;;;;;;;2.12;1.40;;;;;;;44.29;12.99;101549.05;1670044;85;21312;-73
2021/07/08 07:31:06;;;;;;;10.55;1.92;;;;;;;44.17;12.27;101553.08;1644990;87;21231;-70
2021/07/08 07:33:42;;;;;;;4.37;1.60;;;;;;;44.09;12.15;101542.30;1639625;86;21874;-71
2021/07/08 07:36:14;;;;;;;2.65;1.45;;;;;;;44.05;11.75;101546.02;1645337;87;21339;-72
2021/07/08 07:38:47;;;;;;;5.28;1.50;;;;;;;43.57;11.75;101540.75;1646510;86;21313;-74
2021/07/08 07:41:21;;;;;;;2.85;1.87;;;;;;;42.94;12.51;101535.05;1661974;84;21219;-65
2021/07/08 07:43:54;;;;;;;5.05;1.57;;;;;;;42.59;13.14;101538.25;1635042;86;21215;-68
2021/07/08 07:46:29;;;;;;;3.67;1.50;;;;;;;42.31;13.30;101550.59;1670994;85;21128;-67
2021/07/08 07:49:02;;;;;;;3.65;1.42;;;;;;;42.07;13.17;101550.94;1644291;87;21228;-70
2021/07/08 07:51:35;;;;;;;3.40;1.67;;;;;;;42.13;13.41;101549.13;1641843;87;21348;-76
2021/07/08 07:54:09;;;;;;;3.02;1.70;;;;;;;42.19;14.29;101547.06;1667122;85;21378;-71
2021/07/08 07:56:42;;;;;;;4.83;1.40;;;;;;;42.24;14.05;101540.88;1644088;85;21250;-72
2021/07/08 07:59:16;;;;;;;2.85;1.80;;;;;;;42.33;14.41;101540.07;1668682;85;22518;-71
2021/07/08 08:01:50;;;;;;;3.77;1.70;;;;;;;42.46;13.88;101539.16;1641591;87;21335;-70
2021/07/08 08:04:29;;;;;;;2.10;1.27;;;;;;;42.46;14.21;101541.36;1660964;85;21328;-71
2021/07/08 08:09:52;;;;;;;3.58;1.70;;;;;;;42.24;15.12;101541.42;1670741;85;21416;-70
2021/07/08 08:12:26;;;;;;;4.55;1.40;;;;;;;42.39;14.63;101548.45;1668567;85;21395;-70
2021/07/08 08:14:59;;;;;;;9.50;1.85;;;;;;;42.23;14.37;101550.23;1643190;87;22372;-70
2021/07/08 08:17:33;;;;;;;5.62;1.50;;;;;;;41.99;14.73;101559.39;1666465;85;21339;-73
2021/07/08 08:20:20;;;;;;;2.62;1.40;;;;;;;41.67;15.04;101543.70;1726198;82;21314;-75
2021/07/08 08:22:54;;;;;;;5.00;1.57;;;;;;;41.60;15.02;101552.40;1699161;84;22370;-74
2021/07/08 08:25:27;;;;;;;5.97;1.42;;;;;;;41.74;15.28;101542.73;1706524;83;21355;-75
2021/07/08 08:27:59;;;;;;;6.35;1.55;;;;;;;41.81;14.64;101547.22;1707495;83;21382;-71
2021/07/08 08:30:33;;;;;;;3.33;1.30;;;;;;;41.42;14.49;101554.19;1702357;83;21808;-74
2021/07/08 08:33:06;;;;;;;2.05;1.50;;;;;;;40.88;15.61;101557.05;1706711;83;21798;-72
2021/07/08 08:35:40;;;;;;;3.30;1.47;;;;;;;40.52;14.96;101544.59;1702898;83;21204;-70
2021/07/08 08:38:13;;;;;;;4.20;1.52;;;;;;;40.29;15.46;101549.69;1680988;83;21192;-68
2021/07/08 08:40:48;;;;;;;4.47;1.57;;;;;;;40.03;15.61;101545.78;1706461;83;21370;-72
2021/07/08 08:43:22;;;;;;;2.45;1.42;;;;;;;39.70;15.54;101543.55;1697943;84;21280;-71
2021/07/08 08:45:56;;;;;;;4.65;1.47;;;;;;;39.45;16.38;101545.31;1751581;81;21272;-72
2021/07/08 08:48:29;;;;;;;3.30;1.40;;;;;;;39.23;16.07;101541.80;1748805;81;21200;-71
2021/07/08 08:51:02;;;;;;;4.08;1.67;;;;;;;38.96;16.72;101547.89;1753281;81;21329;-69
2021/07/08 08:53:36;;;;;;;2.95;1.42;;;;;;;38.94;17.10;101548.74;1753729;81;21329;-71
2021/07/08 08:56:09;;;;;;;6.47;1.98;;;;;;;39.10;17.07;101544.44;1754671;81;21287;-69
2021/07/08 08:58:43;;;;;;;3.98;1.67;;;;;;;39.16;17.36;101545.47;1750476;81;21354;-68
2021/07/08 09:01:19;;;;;;;2.17;1.50;;;;;;;38.98;17.60;101544.84;1753258;81;21351;-69
2021/07/08 09:03:52;;;;;;;3.85;1.70;;;;;;;38.40;17.82;101538.16;1752819;81;21974;-72
2021/07/08 09:06:27;;;;;;;5.47;1.62;;;;;;;37.71;18.43;101544.50;1753300;81;22410;-68
2021/07/08 09:09:04;;;;;;;3.08;1.60;;;;;;;37.39;18.62;101546.91;1667064;84;21297;-69
2021/07/08 09:11:38;;;;;;;5.70;1.40;;;;;;;37.02;18.67;101541.34;1680591;83;21204;-71
2021/07/08 09:14:13;;;;;;;5.85;1.80;;;;;;;36.75;19.05;101543.64;1710960;82;21296;-72
2021/07/08 09:16:46;;;;;;;5.15;1.80;;;;;;;36.60;19.59;101538.77;1705778;83;21161;-71
2021/07/08 09:19:23;;;;;;;7.62;1.90;;;;;;;36.68;20.28;101547.75;1724638;82;21320;-70
2021/07/08 09:22:01;;;;;;;3.02;2.10;;;;;;;36.65;19.12;101547.77;1716625;82;21195;-67
2021/07/08 09:24:37;;;;;;;9.35;2.20;;;;;;;36.57;19.77;101537.98;1710693;83;21368;-72
2021/07/08 09:27:13;;;;;;;2.40;1.90;;;;;;;36.40;19.34;101533.61;1713581;83;21690;-68
2021/07/08 09:29:49;;;;;;;3.12;1.80;;;;;;;36.24;19.68;101535.28;1721440;82;21312;-67
2021/07/08 09:32:23;;;;;;;3.50;1.65;;;;;;;36.06;19.57;101528.52;1721189;82;21749;-70
2021/07/08 09:34:58;;;;;;;4.70;1.60;;;;;;;35.89;20.25;101542.94;1714471;82;21282;-70
2021/07/08 09:37:33;;;;;;;5.50;1.70;;;;;;;35.73;20.78;101538.58;1712166;82;21427;-70
2021/07/08 09:40:08;;;;;;;;;;;;;;;35.65;21.30;101532.30;1715666;83;21346;-72
2021/07/08 09:42:44;;;;;;;3.75;1.70;;;;;;;35.58;21.55;101533.11;1704928;83;20258;-69
2021/07/08 09:45:20;;;;;;;3.12;1.60;;;;;;;35.38;21.08;101536.58;1718397;83;21356;-68
2021/07/08 09:47:53;;;;;;;3.30;1.67;;;;;;;35.00;21.72;101541.90;1710646;83;21260;-71
2021/07/08 09:50:34;;;;;;;3.35;1.82;;;;;;;34.57;21.79;101544.97;1710526;83;21231;-69
2021/07/08 09:53:15;;;;;;;2.40;1.70;;;;;;;34.30;22.29;101535.52;1711334;83;21956;-71
2021/07/08 09:58:35;;;;;;;2.27;1.65;;;;;;;34.06;23.40;101538.34;1708471;83;21415;-69
2021/07/08 10:01:14;;;;;;;5.60;2.00;;;;;;;33.85;23.29;101525.65;1696647;84;21327;-67
2021/07/08 10:03:50;;;;;;;3.80;1.70;;;;;;;33.73;23.52;101532.62;1681049;84;21206;-71
2021/07/08 10:06:23;;;;;;;4.90;1.90;;;;;;;33.67;23.36;101521.97;1676700;84;21329;-74
2021/07/08 10:08:56;;;;;;;3.08;1.85;;;;;;;33.55;23.81;101522.14;1687569;84;21168;-72
2021/07/08 10:11:29;;;;;;;5.80;2.08;;;;;;;33.51;24.22;101519.61;1676091;84;21223;-71
2021/07/08 10:14:03;;;;;;;4.75;1.65;;;;;;;33.46;23.86;101533.69;1714297;82;21234;-69
2021/07/08 10:16:36;;;;;;;3.35;1.60;;;;;;;33.22;24.00;101529.90;1703898;82;21863;-71
2021/07/08 10:19:09;;;;;;;3.62;2.30;;;;;;;33.11;24.01;101524.09;1714514;82;21326;-72
2021/07/08 10:21:43;;;;;;;3.58;1.77;;;;;;;33.08;24.29;101522.41;1671849;85;21815;-70
2021/07/08 10:24:16;;;;;;;2.92;1.75;;;;;;;32.98;24.01;101524.43;1660475;83;21378;-66
2021/07/08 10:26:49;;;;;;;4.22;1.85;;;;;;;32.84;24.22;101519.67;1680473;83;21591;-68
2021/07/08 10:29:23;;;;;;;;;;;;;;;32.71;24.53;101518.67;1681925;83;21442;-68
2021/07/08 10:31:57;;;;;;;9.53;2.40;;;;;;;32.59;23.52;101519.62;1680485;84;20213;-71
2021/07/08 10:34:30;;;;;;;12.68;2.60;;;;;;;32.39;24.19;101515.77;1677149;83;21871;-64
2021/07/08 10:37:03;;;;;;;2.12;1.65;;;;;;;32.19;24.28;101506.00;1684880;82;21274;-66
2021/07/08 10:39:42;;;;;;;8.80;2.10;;;;;;;32.02;24.59;101504.66;1727847;81;21310;-73
2021/07/08 10:42:18;;;;;;;6.53;2.00;;;;;;;31.91;25.51;101503.63;1726677;81;21304;-72
2021/07/08 10:44:52;;;;;;;5.00;2.37;;;;;;;31.73;25.32;101502.54;1681588;82;21829;-69
2021/07/08 10:47:40;;;;;;;4.72;2.10;;;;;;;31.63;25.50;101495.59;1700836;84;21190;-70
2021/07/08 10:50:42;;;;;;;4.03;1.87;;;;;;;31.61;25.86;101496.90;1680106;85;21238;-71
2021/07/08 10:53:27;;;;;;;18.23;2.87;;;;;;;31.55;26.09;101493.27;1676675;85;22254;-67
2021/07/08 10:56:07;;;;;;;2.70;1.75;;;;;;;31.48;25.75;101498.58;1682561;85;22287;-70
2021/07/08 10:58:55;;;;;;;4.17;1.70;;;;;;;31.39;25.66;101491.34;1677585;84;21285;-70
2021/07/08 11:01:34;;;;;;;2.62;1.50;;;;;;;31.38;25.80;101492.95;1698557;84;21329;-69
2021/07/08 11:04:07;;;;;;;3.98;2.17;;;;;;;31.31;25.68;101480.93;1697504;84;21258;-71
2021/07/08 11:06:42;;;;;;;3.20;1.98;;;;;;;31.22;25.37;101492.66;1695705;84;21324;-67
2021/07/08 11:09:20;;;;;;;7.22;2.42;;;;;;;31.15;26.42;101486.58;1730923;82;21160;-69
2021/07/08 11:11:58;;;;;;;8.23;2.10;;;;;;;31.09;26.93;101486.20;1704833;84;21303;-70
2021/07/08 11:14:32;;;;;;;4.53;1.80;;;;;;;31.06;27.41;101479.91;1707968;82;21307;-68
2021/07/08 11:17:14;;;;;;;3.10;1.77;;;;;;;31.08;27.59;101487.77;1708836;82;21278;-67
2021/07/08 11:19:48;;;;;;;2.87;1.90;;;;;;;31.11;27.37;101480.02;1704389;84;21343;-71
2021/07/08 11:22:27;;;;;;;6.30;2.10;;;;;;;31.16;28.44;101482.81;1670783;84;21335;-68
2021/07/08 11:25:01;;;;;;;4.35;2.02;;;;;;;31.18;28.38;101482.56;1699277;83;21219;-70
2021/07/08 11:27:37;;;;;;;5.90;2.20;;;;;;;31.17;28.44;101480.38;1672181;85;21296;-69
2021/07/08 11:30:23;;;;;;;3.45;1.85;;;;;;;31.15;28.00;101488.45;1702852;84;21246;-67
2021/07/08 11:32:59;;;;;;;4.37;2.05;;;;;;;31.10;28.07;101481.59;1700791;84;21368;-70
2021/07/08 11:35:36;;;;;;;4.25;1.70;;;;;;;31.10;28.31;101480.23;1669646;85;21363;-68
2021/07/08 11:38:18;;;;;;;5.10;2.15;;;;;;;31.13;27.95;101483.30;1684182;84;21447;-71
2021/07/08 11:40:52;;;;;;;4.15;1.72;;;;;;;31.03;28.25;101484.45;1673518;84;21335;-70
2021/07/08 11:43:37;;;;;;;2.60;1.70;;;;;;;30.77;27.86;101485.49;1682936;84;21201;-68
2021/07/08 11:46:10;;;;;;;2.95;1.87;;;;;;;30.54;28.11;101484.50;1682175;84;21309;-70
2021/07/08 11:48:48;;;;;;;3.20;1.67;;;;;;;30.46;28.34;101478.10;1681746;84;21286;-67
2021/07/08 11:51:30;;;;;;;3.47;1.70;;;;;;;30.35;28.70;101476.25;1681642;85;21152;-66
2021/07/08 11:54:03;;;;;;;1.90;1.60;;;;;;;30.31;28.77;101477.73;1700129;84;21228;-67
2021/07/08 11:56:37;;;;;;;4.30;2.17;;;;;;;30.32;29.13;101474.50;1645426;83;21170;-65
2021/07/08 11:59:11;;;;;;;6.60;2.30;;;;;;;30.35;28.67;101476.25;1711428;83;21257;-69
2021/07/08 12:01:46;;;;;;;4.40;1.80;;;;;;;30.32;28.33;101477.20;1701778;84;21874;-67
2021/07/08 12:04:23;;;;;;;4.67;2.40;;;;;;;30.20;28.22;101470.98;1677962;84;21277;-69